Time;durP1;ratioP1;P1;durP2;ratioP2;P2;SDS_P1;SDS_P2;PMS_P1;PMS_P2;Temp;Humidity;BMP_temperature;BMP_pressure;BME280_temperature;BME280_humidity;BME280_pressure;Samples;Min_cycle;Max_cycle;Signal;HPM_P1;HPM_P2
2022/09/29 00:01:07;;;;;;;31.23;22.25;;;;;;;15.23;100.00;99758.50;1723286;83;21083;-69
2022/09/29 00:03:36;;;;;;;31.23;22.45;;;;;;;15.26;100.00;99760.03;1723173;83;21008;-69
2022/09/29 00:06:13;;;;;;;29.42;22.02;;;;;;;15.32;100.00;99763.45;1723471;83;21059;-69
2022/09/29 00:08:41;;;;;;;30.68;22.02;;;;;;;15.36;100.00;99769.58;1723068;83;21087;-69
2022/09/29 00:11:10;;;;;;;29.60;22.82;;;;;;;15.43;100.00;99773.84;1723689;83;21019;-69
2022/09/29 00:13:37;;;;;;;31.48;21.57;;;;;;;15.40;100.00;99774.89;1723690;83;21103;-70
2022/09/29 00:16:05;;;;;;;30.60;22.15;;;;;;;15.38;100.00;99779.36;1723395;83;21100;-69
2022/09/29 00:18:34;;;;;;;29.98;21.85;;;;;;;15.36;100.00;99786.44;1723695;83;21090;-70
2022/09/29 00:21:06;;;;;;;28.45;21.37;;;;;;;15.28;100.00;99787.97;1723646;83;21058;-69
2022/09/29 00:23:35;;;;;;;32.95;23.27;;;;;;;15.19;100.00;99792.08;1723572;83;21019;-70
2022/09/29 00:26:19;;;;;;;33.30;21.37;;;;;;;15.12;100.00;99792.17;1723313;83;21333;-69
2022/09/29 00:28:55;;;;;;;31.05;22.77;;;;;;;15.12;100.00;99795.58;1724166;83;21491;-69
2022/09/29 00:31:28;;;;;;;31.52;21.62;;;;;;;15.08;100.00;99788.16;1723466;83;21035;-69
2022/09/29 00:33:55;;;;;;;31.50;22.27;;;;;;;15.06;100.00;99786.97;1723718;83;21023;-69
2022/09/29 00:36:24;;;;;;;30.12;21.52;;;;;;;15.06;100.00;99792.63;1723446;83;21067;-70
2022/09/29 00:38:52;;;;;;;33.58;21.77;;;;;;;15.04;100.00;99790.14;1723473;83;21153;-69
2022/09/29 00:41:26;;;;;;;32.83;21.60;;;;;;;15.03;100.00;99793.20;1723334;83;21095;-69
2022/09/29 00:44:04;;;;;;;33.05;21.90;;;;;;;15.15;100.00;99802.33;1723714;83;21544;-69
2022/09/29 00:46:39;;;;;;;37.67;22.10;;;;;;;15.18;100.00;99796.42;1723748;82;21523;-69
2022/09/29 00:49:21;;;;;;;43.23;22.85;;;;;;;15.26;100.00;99797.14;1723533;83;21048;-69
2022/09/29 00:52:08;;;;;;;40.90;22.17;;;;;;;15.29;100.00;99807.30;1723432;83;21129;-69
2022/09/29 00:54:43;;;;;;;37.95;22.32;;;;;;;15.30;100.00;99810.23;1723145;83;21378;-69
2022/09/29 00:57:16;;;;;;;37.10;21.75;;;;;;;15.33;100.00;99811.80;1723487;83;21326;-69
2022/09/29 00:59:54;;;;;;;38.87;22.50;;;;;;;15.39;100.00;99810.03;1723941;83;21047;-69
2022/09/29 01:02:23;;;;;;;34.60;22.75;;;;;;;15.43;100.00;99809.68;1723655;83;21055;-69
2022/09/29 01:04:53;;;;;;;38.80;22.65;;;;;;;15.47;100.00;99815.92;1723415;82;21083;-69
2022/09/29 01:07:26;;;;;;;38.50;24.25;;;;;;;15.46;100.00;99816.88;1723560;83;21019;-70
2022/09/29 01:09:56;;;;;;;36.08;23.02;;;;;;;15.43;100.00;99813.57;1723691;83;21106;-70
2022/09/29 01:12:23;;;;;;;36.80;24.15;;;;;;;15.49;100.00;99812.73;1723549;83;21354;-69
2022/09/29 01:14:53;;;;;;;37.15;24.87;;;;;;;15.51;100.00;99822.52;1726984;82;22201;-69
2022/09/29 01:17:21;;;;;;;32.50;23.32;;;;;;;15.52;100.00;99817.70;1716292;82;21609;-69
2022/09/29 01:20:09;;;;;;;32.67;22.75;;;;;;;15.45;100.00;99819.09;1718332;83;21158;-70
2022/09/29 01:23:18;;;;;;;34.18;23.15;;;;;;;15.46;100.00;99817.69;1721580;83;21034;-69
2022/09/29 01:26:02;;;;;;;47.62;27.50;;;;;;;15.44;100.00;99816.98;1712676;83;21017;-69
2022/09/29 01:28:42;;;;;;;;;;;;;;;15.49;100.00;99820.52;1731441;83;21591;-69
2022/09/29 01:31:32;;;;;;;44.53;25.65;;;;;;;15.57;100.00;99819.47;1728804;83;20149;-70
2022/09/29 01:34:29;;;;;;;46.53;24.43;;;;;;;15.59;100.00;99818.43;1728745;83;21090;-69
2022/09/29 01:37:19;;;;;;;44.55;25.23;;;;;;;15.55;100.00;99818.31;1728048;83;21035;-69
2022/09/29 01:39:58;;;;;;;39.55;24.65;;;;;;;15.35;100.00;99823.70;1728759;83;21126;-69
2022/09/29 01:42:36;;;;;;;38.55;23.98;;;;;;;15.22;100.00;99821.66;1727824;83;21066;-70
2022/09/29 01:45:21;;;;;;;42.48;25.12;;;;;;;15.14;100.00;99820.92;1727731;83;21031;-69
2022/09/29 01:47:52;;;;;;;44.00;25.55;;;;;;;15.03;100.00;99824.31;1728683;83;21062;-69
2022/09/29 01:50:28;;;;;;;36.05;23.05;;;;;;;14.89;100.00;99816.73;1728923;83;21031;-69
2022/09/29 01:53:06;;;;;;;35.70;24.20;;;;;;;14.85;100.00;99807.52;1727797;83;21535;-69
2022/09/29 01:55:37;;;;;;;35.25;23.85;;;;;;;14.78;100.00;99817.96;1728907;83;21042;-70
2022/09/29 01:58:09;;;;;;;37.80;24.10;;;;;;;14.72;100.00;99821.84;1728765;83;21087;-69
2022/09/29 02:00:40;;;;;;;41.90;25.25;;;;;;;14.71;100.00;99823.25;1728620;83;21070;-69
2022/09/29 02:03:18;;;;;;;37.83;23.60;;;;;;;14.61;100.00;99817.42;1728585;83;21064;-70
2022/09/29 02:05:53;;;;;;;40.83;25.32;;;;;;;14.55;100.00;99818.31;1728702;83;21033;-69
2022/09/29 02:08:31;;;;;;;37.35;24.00;;;;;;;14.51;100.00;99816.88;1728860;83;21043;-69
2022/09/29 02:11:13;;;;;;;37.42;23.92;;;;;;;14.46;100.00;99812.51;1728862;83;21528;-70
2022/09/29 02:14:11;;;;;;;37.60;24.43;;;;;;;14.40;100.00;99819.77;1728572;83;21488;-70
2022/09/29 02:16:43;;;;;;;37.98;25.50;;;;;;;14.33;100.00;99825.00;1728616;83;21070;-69
2022/09/29 02:19:17;;;;;;;41.58;25.08;;;;;;;14.28;100.00;99831.47;1728633;83;21083;-70
2022/09/29 02:21:44;;;;;;;39.00;24.72;;;;;;;14.24;100.00;99829.55;1727495;83;21503;-69
2022/09/29 02:24:12;;;;;;;39.08;24.50;;;;;;;14.19;100.00;99832.91;1728460;83;21122;-69
2022/09/29 02:26:40;;;;;;;38.17;23.60;;;;;;;14.15;100.00;99840.09;1728709;83;21015;-69
2022/09/29 02:29:08;;;;;;;38.35;23.83;;;;;;;14.10;100.00;99843.45;1728397;83;21047;-69
2022/09/29 02:31:37;;;;;;;34.35;22.77;;;;;;;14.04;100.00;99846.47;1728257;83;21099;-69
2022/09/29 02:34:08;;;;;;;37.73;23.12;;;;;;;13.96;100.00;99851.34;1728894;83;21496;-68
2022/09/29 02:36:55;;;;;;;35.28;22.17;;;;;;;13.88;100.00;99857.03;1728529;83;21524;-68
2022/09/29 02:39:42;;;;;;;33.90;22.30;;;;;;;13.85;100.00;99857.27;1728441;83;21090;-69
2022/09/29 02:42:41;;;;;;;34.83;23.57;;;;;;;13.80;100.00;99873.08;1713157;83;21094;-69
2022/09/29 02:45:50;;;;;;;34.85;22.35;;;;;;;13.79;100.00;99879.67;1728524;83;21039;-70
2022/09/29 02:48:46;;;;;;;34.78;23.00;;;;;;;13.76;100.00;99878.09;1728420;83;21062;-69
2022/09/29 02:51:20;;;;;;;37.73;23.60;;;;;;;13.71;100.00;99893.11;1727706;83;21058;-69
2022/09/29 02:54:14;;;;;;;34.85;22.90;;;;;;;13.69;100.00;99898.85;1728695;83;21015;-69
2022/09/29 02:57:16;;;;;;;36.33;23.45;;;;;;;13.70;100.00;99894.50;1728310;83;21090;-69
2022/09/29 03:00:12;;;;;;;41.40;23.38;;;;;;;13.68;100.00;99893.30;1728618;81;21034;-69
2022/09/29 03:02:44;;;;;;;45.55;23.95;;;;;;;13.64;100.00;99882.80;1728359;83;21066;-69
2022/09/29 03:05:16;;;;;;;45.80;23.80;;;;;;;13.61;100.00;99883.02;1728585;83;21511;-70
2022/09/29 03:07:44;;;;;;;41.48;24.43;;;;;;;13.59;100.00;99882.30;1728761;83;21590;-69
2022/09/29 03:10:13;;;;;;;39.70;23.75;;;;;;;13.59;100.00;99882.30;1728564;83;21082;-70
2022/09/29 03:12:41;;;;;;;40.17;23.95;;;;;;;13.56;100.00;99883.30;1728594;83;21547;-69
2022/09/29 03:15:12;;;;;;;37.42;23.90;;;;;;;13.54;100.00;99888.22;1728468;83;21083;-69
2022/09/29 03:17:41;;;;;;;37.93;23.83;;;;;;;13.52;100.00;99897.84;1728605;83;21066;-69
2022/09/29 03:20:09;;;;;;;39.38;24.65;;;;;;;13.51;100.00;99894.91;1728504;83;21036;-69
2022/09/29 03:22:37;;;;;;;39.20;24.98;;;;;;;13.51;100.00;99891.84;1728742;82;21507;-69
2022/09/29 03:25:05;;;;;;;39.95;25.27;;;;;;;13.50;100.00;99891.47;1728482;83;21079;-70
2022/09/29 03:27:32;;;;;;;38.55;26.07;;;;;;;13.49;100.00;99885.95;1728740;83;20996;-69
2022/09/29 03:30:02;;;;;;;40.75;26.87;;;;;;;13.48;100.00;99887.33;1728520;83;21047;-71
2022/09/29 03:32:29;;;;;;;38.70;24.55;;;;;;;13.47;100.00;99889.58;1728446;83;21112;-69
2022/09/29 03:34:56;;;;;;;35.73;23.25;;;;;;;13.45;100.00;99895.31;1728795;83;21047;-70
2022/09/29 03:37:23;;;;;;;37.70;24.75;;;;;;;13.40;100.00;99889.98;1728291;83;21054;-70
2022/09/29 03:39:50;;;;;;;37.20;23.05;;;;;;;13.35;100.00;99892.49;1728549;83;21082;-70
2022/09/29 03:42:22;;;;;;;35.00;23.07;;;;;;;13.29;100.00;99901.47;1728271;83;21008;-70
2022/09/29 03:44:48;;;;;;;32.40;22.13;;;;;;;13.16;100.00;99907.88;1728536;83;21111;-70
2022/09/29 03:47:15;;;;;;;37.23;21.90;;;;;;;13.11;100.00;99911.67;1728558;83;21045;-70
2022/09/29 03:49:42;;;;;;;43.50;23.73;;;;;;;13.14;100.00;99907.15;1728477;83;21020;-71
2022/09/29 03:52:09;;;;;;;43.00;24.47;;;;;;;13.13;100.00;99913.23;1728559;83;21571;-71
2022/09/29 03:54:37;;;;;;;39.58;24.77;;;;;;;13.14;100.00;99914.91;1728371;83;21066;-71
2022/09/29 03:57:04;;;;;;;47.78;26.30;;;;;;;13.17;100.00;99913.39;1728603;83;22127;-71
2022/09/29 03:59:31;;;;;;;47.38;25.48;;;;;;;13.19;100.00;99913.30;1728482;83;21042;-71
2022/09/29 04:01:57;;;;;;;47.75;25.82;;;;;;;13.21;100.00;99919.20;1728386;83;21042;-71
2022/09/29 04:04:24;;;;;;;51.05;25.97;;;;;;;13.21;100.00;99922.61;1728433;83;21102;-71
2022/09/29 04:06:53;;;;;;;55.92;26.95;;;;;;;13.10;100.00;99930.67;1728497;83;21043;-71
2022/09/29 04:09:20;;;;;;;45.03;24.20;;;;;;;13.06;100.00;99939.11;1728595;83;21055;-71
2022/09/29 04:11:47;;;;;;;40.08;23.25;;;;;;;13.13;100.00;99936.95;1728362;83;21051;-71
2022/09/29 04:14:14;;;;;;;41.48;21.62;;;;;;;13.15;100.00;99933.34;1728528;83;21046;-70
2022/09/29 04:16:41;;;;;;;39.03;22.85;;;;;;;13.15;100.00;99944.14;1728546;83;21566;-70
2022/09/29 04:19:08;;;;;;;44.55;25.00;;;;;;;13.21;100.00;99948.45;1728670;83;21071;-70
2022/09/29 04:21:35;;;;;;;45.03;25.12;;;;;;;13.31;100.00;99948.73;1728438;83;21098;-70
2022/09/29 04:24:03;;;;;;;30.92;21.05;;;;;;;13.40;100.00;99953.31;1728403;83;21024;-70
2022/09/29 04:26:30;;;;;;;37.80;22.52;;;;;;;13.41;100.00;99961.42;1729164;83;21076;-71
2022/09/29 04:28:57;;;;;;;30.00;20.95;;;;;;;13.38;100.00;99971.98;1721294;83;21057;-70
2022/09/29 04:31:24;;;;;;;31.87;20.40;;;;;;;13.42;100.00;99984.22;1721545;83;21013;-71
2022/09/29 04:33:51;;;;;;;33.63;20.70;;;;;;;13.41;100.00;99985.98;1748661;81;21058;-70
2022/09/29 04:36:19;;;;;;;26.52;18.48;;;;;;;13.49;100.00;99992.44;1753119;80;21037;-69
2022/09/29 04:38:47;;;;;;;28.52;17.45;;;;;;;13.53;100.00;99994.72;1703038;81;21066;-70
2022/09/29 04:41:14;;;;;;;22.80;17.35;;;;;;;13.54;100.00;100001.53;1757203;81;21503;-71
2022/09/29 04:43:41;;;;;;;22.98;16.60;;;;;;;13.57;100.00;100004.41;1739143;80;20968;-71
2022/09/29 04:46:09;;;;;;;30.70;17.23;;;;;;;13.57;100.00;100000.52;1747530;80;21029;-71
2022/09/29 04:48:37;;;;;;;22.02;15.63;;;;;;;13.60;100.00;99989.52;1750421;80;21109;-71
2022/09/29 04:51:05;;;;;;;22.55;15.72;;;;;;;13.63;100.00;99997.54;1751643;80;21007;-69
2022/09/29 04:53:31;;;;;;;27.17;17.35;;;;;;;13.69;100.00;99999.73;1735477;81;21491;-69
2022/09/29 04:55:58;;;;;;;27.60;19.70;;;;;;;13.80;100.00;100003.71;1724416;82;21118;-70
2022/09/29 04:58:25;;;;;;;24.40;16.97;;;;;;;13.86;100.00;100013.31;1689889;83;21065;-70
2022/09/29 05:00:52;;;;;;;25.80;17.50;;;;;;;13.90;100.00;100020.77;1755022;80;21046;-70
2022/09/29 05:03:19;;;;;;;25.97;17.32;;;;;;;13.88;100.00;100023.91;1716967;82;21037;-71
2022/09/29 05:05:46;;;;;;;25.30;17.52;;;;;;;13.89;100.00;100026.03;1721644;83;21494;-71
2022/09/29 05:08:14;;;;;;;28.10;16.25;;;;;;;13.76;100.00;100029.42;1717986;83;20978;-71
2022/09/29 05:10:41;;;;;;;22.32;16.95;;;;;;;13.83;100.00;100026.81;1721524;83;21044;-71
2022/09/29 05:13:09;;;;;;;21.65;16.97;;;;;;;13.89;100.00;100028.17;1758621;80;21059;-71
2022/09/29 05:15:36;;;;;;;22.13;17.17;;;;;;;14.07;100.00;100030.46;1747331;80;21474;-71
2022/09/29 05:18:04;;;;;;;25.23;16.20;;;;;;;14.23;100.00;100034.54;1748728;80;21049;-70
2022/09/29 05:20:30;;;;;;;22.22;17.65;;;;;;;14.10;100.00;100055.69;1696717;83;21029;-72
2022/09/29 05:22:58;;;;;;;24.27;18.00;;;;;;;14.21;100.00;100054.52;1761233;81;21102;-71
2022/09/29 05:25:27;;;;;;;23.35;17.77;;;;;;;14.30;100.00;100061.31;1712210;82;21075;-71
2022/09/29 05:27:54;;;;;;;26.30;18.65;;;;;;;14.29;100.00;100059.64;1723439;82;22093;-71
2022/09/29 05:30:21;;;;;;;22.70;18.15;;;;;;;14.43;100.00;100058.24;1720415;82;21548;-71
2022/09/29 05:32:49;;;;;;;26.17;17.85;;;;;;;14.48;100.00;100058.77;1722051;82;21078;-72
2022/09/29 05:35:16;;;;;;;24.80;18.52;;;;;;;14.56;100.00;100062.19;1698829;84;21048;-71
2022/09/29 05:37:45;;;;;;;25.95;18.75;;;;;;;14.69;100.00;100064.75;1733328;81;21155;-72
2022/09/29 05:40:13;;;;;;;24.75;18.92;;;;;;;14.89;100.00;100073.75;1691253;83;22292;-72
2022/09/29 05:42:40;;;;;;;25.77;19.73;;;;;;;14.99;100.00;100084.66;1692307;83;21111;-72
2022/09/29 05:45:09;;;;;;;25.82;19.17;;;;;;;15.23;100.00;100095.09;1735992;82;21521;-72
2022/09/29 05:47:42;;;;;;;26.93;20.20;;;;;;;15.14;100.00;100106.57;1722564;82;21101;-71
2022/09/29 05:50:13;;;;;;;27.27;20.50;;;;;;;15.11;100.00;100114.10;1683973;84;21044;-71
2022/09/29 05:52:40;;;;;;;28.42;20.92;;;;;;;15.20;100.00;100102.25;1736426;82;21085;-72
2022/09/29 05:55:09;;;;;;;31.00;22.70;;;;;;;15.27;100.00;100107.38;1719973;82;21060;-71
2022/09/29 05:57:36;;;;;;;29.85;21.65;;;;;;;15.25;100.00;100104.06;1722709;82;21116;-72
2022/09/29 06:00:05;;;;;;;29.18;21.70;;;;;;;15.28;100.00;100104.31;1736124;80;21609;-72
2022/09/29 06:02:35;;;;;;;32.55;23.70;;;;;;;15.32;100.00;100110.94;1752717;80;21118;-72
2022/09/29 06:05:03;;;;;;;31.40;22.73;;;;;;;15.40;100.00;100099.08;1750285;80;21093;-71
2022/09/29 06:07:30;;;;;;;33.28;23.35;;;;;;;15.57;100.00;100095.30;1753381;80;21347;-72
2022/09/29 06:09:57;;;;;;;34.20;24.87;;;;;;;15.72;100.00;100093.39;1752885;80;20988;-72
2022/09/29 06:12:24;;;;;;;35.28;24.23;;;;;;;15.78;100.00;100096.02;1745826;81;21113;-72
2022/09/29 06:14:52;;;;;;;32.05;23.02;;;;;;;15.91;100.00;100107.16;1748224;80;21606;-72
2022/09/29 06:17:19;;;;;;;31.70;23.32;;;;;;;16.03;100.00;100111.92;1745847;80;21527;-72
2022/09/29 06:19:46;;;;;;;36.53;23.67;;;;;;;16.13;100.00;100115.50;1752078;81;21055;-72
2022/09/29 06:22:13;;;;;;;34.10;23.85;;;;;;;16.22;100.00;100117.44;1750870;80;21032;-71
2022/09/29 06:24:40;;;;;;;33.58;23.62;;;;;;;16.36;100.00;100121.61;1747633;80;21115;-72
2022/09/29 06:27:09;;;;;;;36.75;24.23;;;;;;;16.44;100.00;100123.61;1744256;80;21035;-71
2022/09/29 06:29:37;;;;;;;40.70;26.55;;;;;;;16.52;100.00;100121.74;1754260;80;21031;-72
2022/09/29 06:32:04;;;;;;;38.00;26.87;;;;;;;16.58;100.00;100124.70;1748728;80;21071;-72
2022/09/29 06:34:33;;;;;;;34.05;22.62;;;;;;;16.67;100.00;100126.27;1751937;80;22125;-71
2022/09/29 06:39:45;;;;;;;38.13;25.72;;;;;;;16.99;100.00;100123.37;1743860;80;21495;-72
2022/09/29 06:42:12;;;;;;;36.33;25.20;;;;;;;17.15;100.00;100139.06;1708145;83;21589;-73
2022/09/29 06:44:39;;;;;;;35.15;22.62;;;;;;;17.32;100.00;100153.38;1725142;81;21024;-73
2022/09/29 06:47:06;;;;;;;32.08;23.00;;;;;;;17.44;100.00;100173.23;1730177;83;21559;-72
2022/09/29 06:49:33;;;;;;;37.67;24.85;;;;;;;17.62;100.00;100182.20;1753701;80;21014;-73
2022/09/29 06:52:01;;;;;;;34.50;24.85;;;;;;;17.61;100.00;100187.52;1712504;83;21035;-72
2022/09/29 06:54:28;;;;;;;33.65;23.65;;;;;;;17.76;100.00;100189.37;1687127;83;21492;-73
2022/09/29 06:56:55;;;;;;;29.57;20.77;;;;;;;17.88;100.00;100189.73;1732809;81;21072;-72
2022/09/29 06:59:22;;;;;;;30.95;22.13;;;;;;;18.13;100.00;100195.12;1718342;82;21139;-73
2022/09/29 07:01:49;;;;;;;34.38;23.65;;;;;;;18.49;100.00;100211.32;1745599;81;21603;-72
2022/09/29 07:04:18;;;;;;;31.05;22.02;;;;;;;18.45;100.00;100209.92;1736521;81;21054;-73
2022/09/29 07:06:46;;;;;;;30.25;21.00;;;;;;;18.49;100.00;100213.08;1719755;83;21078;-73
2022/09/29 07:09:16;;;;;;;28.75;20.45;;;;;;;18.59;100.00;100234.38;1756794;81;21089;-73
2022/09/29 07:11:49;;;;;;;32.05;21.37;;;;;;;18.70;100.00;100247.00;1746069;81;21058;-73
2022/09/29 07:14:21;;;;;;;27.80;19.30;;;;;;;18.89;100.00;100251.55;1716305;82;21016;-72
2022/09/29 07:16:49;;;;;;;27.67;19.40;;;;;;;19.04;100.00;100250.73;1746061;80;21042;-73
2022/09/29 07:19:18;;;;;;;17.52;12.05;;;;;;;19.08;100.00;100249.06;1737373;81;21027;-72
2022/09/29 07:21:46;;;;;;;25.95;18.27;;;;;;;19.14;100.00;100254.22;1747109;81;21519;-72
2022/09/29 07:24:14;;;;;;;27.58;19.60;;;;;;;19.25;100.00;100254.64;1745654;80;21082;-73
2022/09/29 07:26:42;;;;;;;26.87;19.73;;;;;;;19.33;100.00;100265.25;1746872;81;21097;-73
2022/09/29 07:29:10;;;;;;;26.82;18.30;;;;;;;19.40;100.00;100268.52;1739745;82;21012;-73
2022/09/29 07:31:39;;;;;;;18.62;13.55;;;;;;;19.73;100.00;100280.98;1752850;81;21074;-73
2022/09/29 07:34:06;;;;;;;27.25;19.42;;;;;;;19.93;100.00;100287.55;1733848;82;21613;-71
2022/09/29 07:36:33;;;;;;;27.37;20.00;;;;;;;20.11;100.00;100293.77;1737529;82;21067;-73
2022/09/29 07:39:00;;;;;;;24.77;18.05;;;;;;;20.22;100.00;100303.31;1738391;82;21107;-73
2022/09/29 07:41:27;;;;;;;28.02;19.05;;;;;;;20.36;100.00;100302.91;1773489;80;21067;-73
2022/09/29 07:43:54;;;;;;;14.70;11.05;;;;;;;20.39;100.00;100308.34;1774673;80;21035;-73
2022/09/29 07:46:21;;;;;;;15.15;9.85;;;;;;;20.49;100.00;100311.79;1764567;80;21047;-73
2022/09/29 07:48:48;;;;;;;25.32;18.62;;;;;;;20.62;100.00;100307.66;1762252;80;21134;-73
2022/09/29 07:51:18;;;;;;;29.90;19.57;;;;;;;20.81;100.00;100310.73;1768207;80;21082;-73
2022/09/29 07:53:46;;;;;;;31.75;19.20;;;;;;;20.77;100.00;100321.13;1770582;81;21086;-73
2022/09/29 07:56:17;;;;;;;27.07;19.35;;;;;;;20.84;100.00;100314.86;1718758;81;21049;-72
2022/09/29 07:58:48;;;;;;;28.57;20.65;;;;;;;21.03;100.00;100320.57;1717477;82;21013;-73
2022/09/29 08:01:17;;;;;;;30.62;21.33;;;;;;;21.13;100.00;100321.38;1702438;82;21028;-72
2022/09/29 08:03:51;;;;;;;32.88;23.77;;;;;;;21.10;100.00;100317.72;1724538;82;21087;-72
2022/09/29 08:06:19;;;;;;;28.70;21.07;;;;;;;21.10;100.00;100324.27;1715471;82;21058;-73
2022/09/29 08:08:47;;;;;;;29.85;21.95;;;;;;;21.08;100.00;100319.16;1717600;82;21165;-73
2022/09/29 08:11:19;;;;;;;29.60;20.20;;;;;;;21.16;100.00;100320.59;1717144;82;21035;-73
2022/09/29 08:13:52;;;;;;;30.97;22.85;;;;;;;21.24;100.00;100318.58;1715339;82;21126;-72
2022/09/29 08:16:20;;;;;;;32.15;22.85;;;;;;;21.10;100.00;100327.70;1705444;83;21403;-71
2022/09/29 08:18:47;;;;;;;35.25;23.27;;;;;;;21.01;100.00;100325.94;1721921;81;21522;-72
2022/09/29 08:21:14;;;;;;;25.95;17.95;;;;;;;20.88;100.00;100316.23;1761424;81;21053;-72
2022/09/29 08:23:43;;;;;;;31.10;22.15;;;;;;;20.89;100.00;100312.17;1762301;80;21002;-73
2022/09/29 08:26:15;;;;;;;20.68;14.43;;;;;;;20.77;100.00;100315.41;1769090;80;21093;-72
2022/09/29 08:28:44;;;;;;;34.58;22.22;;;;;;;20.81;100.00;100311.55;1765483;81;21478;-73
2022/09/29 08:31:21;;;;;;;16.50;12.43;;;;;;;20.81;100.00;100314.16;1760422;80;21494;-73
2022/09/29 08:33:51;;;;;;;29.42;21.57;;;;;;;20.87;100.00;100323.26;1754714;80;21045;-73
2022/09/29 08:36:19;;;;;;;31.07;22.32;;;;;;;20.89;100.00;100320.02;1705161;83;22142;-72
2022/09/29 08:38:50;;;;;;;29.67;21.90;;;;;;;21.01;100.00;100325.45;1715764;83;21126;-74
2022/09/29 08:41:49;;;;;;;32.60;21.75;;;;;;;21.07;100.00;100327.17;1763051;81;21492;-73
2022/09/29 08:44:50;;;;;;;28.05;20.15;;;;;;;21.28;100.00;100331.73;1763812;80;21035;-70
2022/09/29 08:47:28;;;;;;;30.72;22.37;;;;;;;21.47;100.00;100333.52;1769521;80;21043;-73
2022/09/29 08:50:31;;;;;;;32.30;22.22;;;;;;;21.75;100.00;100333.05;1753643;80;21487;-73
2022/09/29 08:53:04;;;;;;;30.02;20.82;;;;;;;22.03;100.00;100344.05;1742885;80;21538;-73
2022/09/29 08:55:41;;;;;;;26.00;19.43;;;;;;;22.43;100.00;100353.38;1744661;80;21085;-74
2022/09/29 08:58:15;;;;;;;28.55;21.00;;;;;;;22.63;100.00;100365.84;1747326;81;21051;-73
2022/09/29 09:01:03;;;;;;;28.65;21.10;;;;;;;22.31;100.00;100365.38;1755968;80;21044;-72
2022/09/29 09:03:48;;;;;;;26.30;18.85;;;;;;;22.46;100.00;100375.36;1762038;80;21042;-72
2022/09/29 09:06:44;;;;;;;20.48;16.82;;;;;;;22.64;100.00;100379.31;1744569;80;21038;-73
2022/09/29 09:09:27;;;;;;;17.65;12.90;;;;;;;22.99;100.00;100384.56;1753330;80;21594;-74
2022/09/29 09:12:26;;;;;;;15.85;12.93;;;;;;;23.04;100.00;100382.83;1719663;82;21091;-73
2022/09/29 09:15:27;;;;;;;18.23;14.03;;;;;;;22.86;100.00;100388.55;1716050;82;21027;-73
2022/09/29 09:18:43;;;;;;;21.90;15.10;;;;;;;22.83;100.00;100385.73;1718605;82;21063;-73
2022/09/29 09:21:15;;;;;;;19.73;14.43;;;;;;;22.88;100.00;100390.53;1719670;82;21038;-73
2022/09/29 09:24:00;;;;;;;17.17;13.90;;;;;;;22.90;100.00;100382.83;1726961;80;21488;-73
2022/09/29 09:26:41;;;;;;;17.75;14.05;;;;;;;22.96;100.00;100382.23;1773744;80;21016;-73
2022/09/29 09:29:35;;;;;;;15.95;13.08;;;;;;;22.81;100.00;100386.37;1747942;80;21018;-73
2022/09/29 09:32:10;;;;;;;16.90;12.58;;;;;;;22.89;100.00;100377.73;1749494;80;21035;-73
2022/09/29 09:35:01;;;;;;;19.60;14.73;;;;;;;22.89;100.00;100377.73;1754952;80;21090;-74
2022/09/29 09:37:38;;;;;;;17.62;13.80;;;;;;;22.80;100.00;100385.53;1748783;80;21480;-73
2022/09/29 09:40:23;;;;;;;13.88;11.05;;;;;;;22.72;100.00;100391.20;1719823;83;21076;-74
2022/09/29 09:43:09;;;;;;;15.40;13.22;;;;;;;22.71;100.00;100399.56;1726977;83;21048;-73
2022/09/29 09:45:48;;;;;;;17.87;13.88;;;;;;;22.71;100.00;100406.13;1754026;80;21054;-73
2022/09/29 09:48:35;;;;;;;18.27;14.15;;;;;;;22.71;100.00;100406.13;1714206;83;21047;-73
2022/09/29 09:51:16;;;;;;;20.40;15.72;;;;;;;22.53;100.00;100402.66;1687153;83;21007;-73
2022/09/29 09:53:46;;;;;;;22.30;16.20;;;;;;;22.44;100.00;100409.59;1739623;81;21105;-73
2022/09/29 09:57:09;;;;;;;22.02;16.00;;;;;;;22.38;100.00;100412.34;1752382;82;21554;-73
2022/09/29 10:00:11;;;;;;;20.85;16.60;;;;;;;22.20;100.00;100408.33;1738985;81;21032;-73
2022/09/29 10:02:49;;;;;;;20.92;16.23;;;;;;;22.28;100.00;100404.16;1730435;81;21586;-73
2022/09/29 10:05:19;;;;;;;20.15;14.90;;;;;;;22.31;100.00;100405.20;1759826;80;20998;-73
2022/09/29 10:07:49;;;;;;;20.32;15.78;;;;;;;22.25;100.00;100403.98;1763991;80;21047;-73
2022/09/29 10:10:23;;;;;;;23.07;16.35;;;;;;;22.29;100.00;100406.65;1770384;80;21617;-73
2022/09/29 10:13:07;;;;;;;19.65;14.33;;;;;;;22.25;100.00;100402.67;1754341;80;21117;-73
2022/09/29 10:15:58;;;;;;;26.80;17.23;;;;;;;22.26;100.00;100402.17;1773201;80;20991;-72
2022/09/29 10:18:33;;;;;;;26.60;17.07;;;;;;;22.42;100.00;100410.72;1745493;80;21000;-73
2022/09/29 10:21:00;;;;;;;19.95;15.08;;;;;;;22.42;100.00;100412.85;1759226;80;21000;-73
2022/09/29 10:23:31;;;;;;;21.55;16.45;;;;;;;22.44;100.00;100406.16;1759020;80;21038;-73
2022/09/29 10:26:11;;;;;;;22.70;16.70;;;;;;;22.43;100.00;100411.89;1705279;82;21059;-73
2022/09/29 10:28:49;;;;;;;15.68;12.00;;;;;;;22.38;100.00;100410.18;1712903;83;21059;-73
2022/09/29 10:31:21;;;;;;;21.75;15.83;;;;;;;22.44;100.00;100397.80;1761683;80;21552;-73
2022/09/29 10:33:59;;;;;;;20.08;14.95;;;;;;;22.40;100.00;100405.61;1767112;80;21035;-73
2022/09/29 10:36:34;;;;;;;18.42;14.53;;;;;;;22.45;100.00;100404.70;1748349;80;21535;-73
2022/09/29 10:39:01;;;;;;;19.30;15.20;;;;;;;22.52;100.00;100397.06;1739112;81;21098;-73
2022/09/29 10:41:29;;;;;;;22.10;14.33;;;;;;;22.55;100.00;100394.16;1748695;80;21003;-73
2022/09/29 10:44:02;;;;;;;19.60;14.13;;;;;;;22.60;100.00;100403.20;1712018;82;21098;-73
2022/09/29 10:46:55;;;;;;;20.88;15.10;;;;;;;22.68;100.00;100395.91;1772946;80;21051;-73
2022/09/29 10:49:29;;;;;;;;;;;;;;;22.78;100.00;100392.73;1774320;80;21043;-72
2022/09/29 10:52:08;;;;;;;17.95;12.58;;;;;;;22.70;100.00;100390.52;1759345;80;20105;-72
2022/09/29 10:54:39;;;;;;;24.95;16.73;;;;;;;22.71;100.00;100395.63;1749253;80;20999;-72
2022/09/29 10:57:14;;;;;;;19.82;14.93;;;;;;;22.73;100.00;100395.45;1763006;80;21030;-72
2022/09/29 10:59:50;;;;;;;23.47;16.23;;;;;;;22.78;100.00;100386.16;1772088;80;21311;-73
2022/09/29 11:02:22;;;;;;;20.27;14.93;;;;;;;22.82;100.00;100401.13;1759169;80;21145;-72
2022/09/29 11:04:51;;;;;;;18.53;14.00;;;;;;;23.13;100.00;100402.90;1777866;80;21046;-73
2022/09/29 11:07:20;;;;;;;21.65;15.25;;;;;;;23.20;100.00;100401.83;1770297;80;21011;-72
2022/09/29 11:09:49;;;;;;;22.85;15.68;;;;;;;23.15;100.00;100398.32;1770509;80;21027;-72
2022/09/29 11:12:31;;;;;;;25.45;16.97;;;;;;;23.27;100.00;100405.97;1755383;80;21078;-72
2022/09/29 11:15:00;;;;;;;22.52;15.45;;;;;;;23.17;100.00;100402.11;1777259;80;21122;-74
2022/09/29 11:17:37;;;;;;;23.47;16.15;;;;;;;23.12;100.00;100397.83;1761486;80;21051;-73
2022/09/29 11:20:10;;;;;;;23.00;14.93;;;;;;;23.22;100.00;100399.87;1722210;83;21082;-73
2022/09/29 11:23:01;;;;;;;20.17;13.93;;;;;;;23.29;100.00;100393.52;1766160;80;21059;-72
2022/09/29 11:25:56;;;;;;;17.85;14.03;;;;;;;23.25;100.00;100396.92;1775008;80;21046;-73
2022/09/29 11:28:41;;;;;;;17.52;13.03;;;;;;;23.25;100.00;100396.92;1712707;82;21035;-72
2022/09/29 11:31:40;;;;;;;20.30;13.95;;;;;;;23.47;100.00;100413.18;1745058;81;21010;-73
2022/09/29 11:34:51;;;;;;;16.67;13.58;;;;;;;23.47;100.00;100402.67;1689797;83;21528;-74
2022/09/29 11:37:54;;;;;;;18.32;13.30;;;;;;;23.47;100.00;100402.67;1757792;80;21110;-73